createdAt,value
2018-04-16T00:00:30.361Z,42.4
2018-04-16T00:01:20.679Z,42.4
2018-04-16T00:02:10.180Z,42.4
2018-04-16T00:03:00.843Z,42.3
2018-04-16T00:03:50.854Z,42.4
2018-04-16T00:04:40.691Z,42.4
2018-04-16T00:05:30.486Z,42.3
2018-04-16T00:06:21.063Z,42.4
2018-04-16T00:07:10.586Z,42.3
2018-04-16T00:08:01.173Z,42.3
2018-04-16T00:08:51.270Z,42.3
2018-04-16T00:09:41.059Z,42.3
2018-04-16T00:10:31.150Z,42.3
2018-04-16T00:11:21.157Z,42.3
2018-04-16T00:12:11.216Z,42.3
2018-04-16T00:13:01.303Z,42.3
2018-04-16T00:13:51.075Z,42.3
2018-04-16T00:14:41.710Z,42.3
2018-04-16T00:15:31.823Z,42.3
2018-04-16T00:16:21.576Z,42.3
2018-04-16T00:17:11.624Z,42.3
2018-04-16T00:18:01.690Z,42.3
2018-04-16T00:18:51.467Z,42.3
2018-04-16T00:19:41.807Z,42.3
2018-04-16T00:20:31.327Z,42.3
2018-04-16T00:21:22.215Z,42.3
2018-04-16T00:22:11.982Z,42.3
2018-04-16T00:23:02.075Z,42.3
2018-04-16T00:23:52.119Z,42.3
2018-04-16T00:24:41.903Z,42.3
2018-04-16T00:25:32.531Z,42.2
2018-04-16T00:26:22.611Z,42.3
2018-04-16T00:27:12.391Z,42.3
2018-04-16T00:28:02.439Z,42.2
2018-04-16T00:28:52.498Z,42.2
2018-04-16T00:29:42.583Z,42.2
2018-04-16T00:30:32.650Z,42.2
2018-04-16T00:31:22.138Z,42.2
2018-04-16T00:32:12.487Z,42.2
2018-04-16T00:33:02.538Z,42.2
2018-04-16T00:33:53.165Z,42.2
2018-04-16T00:34:43.225Z,42.2
2018-04-16T00:35:32.744Z,42.2
2018-04-16T00:36:22.795Z,42.2
2018-04-16T00:37:13.125Z,42.1
2018-04-16T00:38:03.492Z,42.2
2018-04-16T00:38:52.977Z,42.1
2018-04-16T00:39:43.549Z,42.1
2018-04-16T00:40:33.670Z,42.2
2018-04-16T00:41:23.754Z,42.1
2018-04-16T00:42:13.794Z,42.1
2018-04-16T00:43:03.621Z,42.1
2018-04-16T00:43:53.717Z,42.1
2018-04-16T00:44:43.766Z,42.1
2018-04-16T00:45:34.094Z,42.1
2018-04-16T00:46:23.868Z,42.1
2018-04-16T00:47:13.917Z,42.1
2018-04-16T00:48:03.977Z,42.1
2018-04-16T00:48:53.756Z,42.1
2018-04-16T00:49:43.811Z,42.1
2018-04-16T00:50:34.170Z,42.1
2018-04-16T00:51:24.223Z,42.1
2018-04-16T00:52:14.603Z,42.1
2018-04-16T00:53:03.818Z,42.1
2018-04-16T00:53:54.151Z,42.1
2018-04-16T00:54:43.920Z,42.1
2018-04-16T00:55:34.279Z,42.1
2018-04-16T00:56:24.886Z,42.1
2018-04-16T00:57:14.749Z,42.1
2018-04-16T00:58:04.457Z,42.1
2018-04-16T00:58:54.255Z,42
2018-04-16T00:59:44.871Z,42
2018-04-16T01:00:34.650Z,42
2018-04-16T01:01:24.989Z,42
2018-04-16T01:02:15.351Z,42
2018-04-16T01:03:04.552Z,42
2018-04-16T01:03:54.893Z,42
2018-04-16T01:04:45.500Z,42
2018-04-16T01:05:35.611Z,42
2018-04-16T01:06:25.369Z,42
2018-04-16T01:07:15.429Z,42
2018-04-16T01:08:05.512Z,42
2018-04-16T01:08:55.279Z,41.9
2018-04-16T01:09:45.895Z,42
2018-04-16T01:10:35.424Z,42
2018-04-16T01:11:26.016Z,42
2018-04-16T01:12:15.791Z,41.9
2018-04-16T01:13:05.324Z,41.9
2018-04-16T01:13:55.685Z,41.9
2018-04-16T01:14:45.437Z,41.9
2018-04-16T01:15:36.055Z,41.9
2018-04-16T01:16:25.869Z,41.9
2018-04-16T01:17:16.492Z,41.9
2018-04-16T01:18:06.574Z,41.9
2018-04-16T01:18:56.619Z,41.9
2018-04-16T01:19:46.390Z,41.9
2018-04-16T01:20:36.736Z,41.9
2018-04-16T01:21:25.949Z,41.9
2018-04-16T01:22:16.892Z,41.9
2018-04-16T01:23:06.923Z,41.9
2018-04-16T01:23:56.695Z,41.9
2018-04-16T01:24:46.807Z,41.9
2018-04-16T01:25:36.289Z,41.9
2018-04-16T01:26:27.161Z,41.9
2018-04-16T01:27:16.958Z,41.9
2018-04-16T01:28:07.017Z,41.9
2018-04-16T01:28:57.377Z,41.9
2018-04-16T01:29:47.457Z,41.9
2018-04-16T01:30:37.254Z,41.9
2018-04-16T01:31:26.423Z,41.9
2018-04-16T01:32:17.341Z,41.8
2018-04-16T01:33:07.191Z,41.8
2018-04-16T01:33:57.182Z,41.8
2018-04-16T01:34:46.954Z,41.8
2018-04-16T01:35:37.639Z,41.8
2018-04-16T01:36:27.935Z,41.8
2018-04-16T01:37:16.890Z,41.8
2018-04-16T01:38:07.517Z,41.8
2018-04-16T01:38:57.845Z,41.8
2018-04-16T01:39:47.404Z,41.8
2018-04-16T01:40:37.700Z,41.8
2018-04-16T01:41:28.324Z,41.8
2018-04-16T01:42:18.131Z,41.8
2018-04-16T01:43:08.167Z,41.8
2018-04-16T01:43:58.500Z,41.8
2018-04-16T01:44:48.557Z,41.8
2018-04-16T01:45:38.367Z,41.8
2018-04-16T01:46:28.685Z,41.8
2018-04-16T01:47:18.216Z,41.8
2018-04-16T01:48:08.533Z,41.8
2018-04-16T01:48:58.616Z,41.8
2018-04-16T01:49:48.951Z,41.8
2018-04-16T01:50:38.432Z,41.8
2018-04-16T01:51:28.782Z,41.8
2018-04-16T01:52:19.127Z,41.8
2018-04-16T01:53:08.639Z,41.8
2018-04-16T01:53:58.985Z,41.7
2018-04-16T01:54:49.324Z,41.7
2018-04-16T01:55:39.363Z,41.7
2018-04-16T01:56:29.247Z,41.7
2018-04-16T01:57:19.273Z,41.7
2018-04-16T01:58:09.591Z,41.7
2018-04-16T01:58:59.091Z,41.7
2018-04-16T01:59:49.736Z,41.7
2018-04-16T02:00:39.210Z,41.7
2018-04-16T02:01:29.864Z,41.7
2018-04-16T02:02:19.902Z,41.7
2018-04-16T02:03:09.710Z,41.7
2018-04-16T02:04:00.018Z,41.7
2018-04-16T02:04:50.105Z,41.7
2018-04-16T02:05:39.864Z,41.6
2018-04-16T02:06:29.705Z,41.6
2018-04-16T02:07:20.039Z,41.6
2018-04-16T02:08:10.343Z,41.6
2018-04-16T02:09:00.411Z,41.6
2018-04-16T02:09:49.356Z,41.6
2018-04-16T02:10:39.699Z,41.6
2018-04-16T02:11:30.867Z,41.6
2018-04-16T02:12:20.711Z,41.6
2018-04-16T02:13:09.606Z,41.6
2018-04-16T02:14:00.544Z,41.6
2018-04-16T02:14:50.583Z,41.6
2018-04-16T02:15:40.925Z,41.6
2018-04-16T02:16:30.700Z,41.6
2018-04-16T02:17:20.724Z,41.6
2018-04-16T02:18:10.287Z,41.6
2018-04-16T02:19:00.627Z,41.6
2018-04-16T02:19:50.935Z,41.6
2018-04-16T02:20:41.292Z,41.6
2018-04-16T02:21:31.099Z,41.6
2018-04-16T02:22:21.422Z,41.6
2018-04-16T02:23:11.498Z,41.6
2018-04-16T02:24:01.545Z,41.6
2018-04-16T02:24:51.351Z,41.6
2018-04-16T02:25:41.701Z,41.6
2018-04-16T02:26:31.189Z,41.6
2018-04-16T02:27:21.812Z,41.5
2018-04-16T02:28:11.600Z,41.5
2018-04-16T02:29:01.672Z,41.5
2018-04-16T02:29:51.464Z,41.5
2018-04-16T02:30:41.514Z,41.5
2018-04-16T02:31:31.592Z,41.5
2018-04-16T02:32:21.914Z,41.5
2018-04-16T02:33:12.268Z,41.5
2018-04-16T02:34:02.326Z,41.5
2018-04-16T02:34:52.381Z,41.5
2018-04-16T02:35:42.207Z,41.5
2018-04-16T02:36:32.221Z,41.5
2018-04-16T02:37:22.612Z,41.4
2018-04-16T02:38:12.347Z,41.5
2018-04-16T02:39:02.419Z,41.4
2018-04-16T02:39:52.496Z,41.4
2018-04-16T02:40:42.291Z,41.4
2018-04-16T02:41:32.676Z,41.4
2018-04-16T02:42:22.752Z,41.4
2018-04-16T02:43:12.489Z,41.4
2018-04-16T02:44:03.124Z,41.5
2018-04-16T02:44:52.855Z,41.4
2018-04-16T02:45:42.921Z,41.4
2018-04-16T02:46:33.288Z,41.4
2018-04-16T02:47:22.496Z,41.4
2018-04-16T02:48:13.155Z,41.4
2018-04-16T02:49:03.502Z,41.4
2018-04-16T02:49:53.529Z,41.4
2018-04-16T02:50:43.592Z,41.4
2018-04-16T02:51:33.389Z,41.4
2018-04-16T02:52:23.454Z,41.4
2018-04-16T02:53:13.791Z,41.4
2018-04-16T02:54:03.299Z,41.4
2018-04-16T02:54:53.635Z,41.4
2018-04-16T02:55:43.768Z,41.4
2018-04-16T02:56:33.486Z,41.4
2018-04-16T02:57:23.817Z,41.4
2018-04-16T02:58:14.156Z,41.4
2018-04-16T02:59:03.966Z,41.3
2018-04-16T02:59:54.278Z,41.3
2018-04-16T03:00:44.079Z,41.3
2018-04-16T03:01:34.422Z,41.3
2018-04-16T03:02:24.211Z,41.3
2018-04-16T03:03:14.020Z,41.3
2018-04-16T03:04:04.107Z,41.3
2018-04-16T03:04:54.123Z,41.3
2018-04-16T03:05:44.452Z,41.3
2018-04-16T03:06:34.501Z,41.3
2018-04-16T03:07:24.869Z,41.3
2018-04-16T03:08:14.927Z,41.3
2018-04-16T03:09:04.746Z,41.3
2018-04-16T03:09:55.055Z,41.3
2018-04-16T03:10:44.831Z,41.3
2018-04-16T03:11:35.209Z,41.3
2018-04-16T03:12:24.686Z,41.3
2018-04-16T03:13:15.027Z,41.3
2018-04-16T03:14:05.094Z,41.3
2018-04-16T03:14:55.429Z,41.3
2018-04-16T03:15:44.662Z,41.3
2018-04-16T03:16:35.289Z,41.3
2018-04-16T03:17:24.783Z,41.3
2018-04-16T03:18:15.696Z,41.3
2018-04-16T03:19:05.523Z,41.3
2018-04-16T03:19:55.812Z,41.2
2018-04-16T03:20:45.846Z,41.3
2018-04-16T03:21:35.391Z,41.2
2018-04-16T03:22:26.013Z,41.2
2018-04-16T03:23:15.844Z,41.3
2018-04-16T03:24:06.106Z,41.2
2018-04-16T03:24:55.604Z,41.2
2018-04-16T03:25:46.516Z,41.2
2018-04-16T03:26:35.478Z,41.2
2018-04-16T03:27:25.551Z,41.2
2018-04-16T03:28:16.154Z,41.2
2018-04-16T03:29:05.941Z,41.2
2018-04-16T03:29:56.038Z,41.2
2018-04-16T03:30:46.428Z,41.2
2018-04-16T03:31:36.434Z,41.2
2018-04-16T03:32:26.495Z,41.2
2018-04-16T03:33:16.533Z,41.2
2018-04-16T03:34:06.627Z,41.1
2018-04-16T03:34:56.097Z,41.2
2018-04-16T03:35:47.029Z,41.2
2018-04-16T03:36:37.103Z,41.1
2018-04-16T03:37:26.896Z,41.1
2018-04-16T03:38:16.652Z,41.1
2018-04-16T03:39:07.321Z,41.1
2018-04-16T03:39:57.063Z,41.1
2018-04-16T03:40:47.387Z,41.1
2018-04-16T03:41:36.620Z,41.1
2018-04-16T03:42:27.234Z,41.1
2018-04-16T03:43:16.701Z,41.1
2018-04-16T03:44:07.098Z,41.1
2018-04-16T03:44:57.746Z,41.1
2018-04-16T03:45:47.586Z,41.1
2018-04-16T03:46:37.650Z,41.1
2018-04-16T03:47:27.648Z,41.1
2018-04-16T03:48:17.404Z,41.1
2018-04-16T03:49:07.788Z,41.1
2018-04-16T03:49:57.860Z,41.1
2018-04-16T03:50:47.863Z,41.1
2018-04-16T03:51:38.237Z,41.1
2018-04-16T03:52:28.307Z,41.1
2018-04-16T03:53:18.057Z,41
2018-04-16T03:54:08.415Z,41.1
2018-04-16T03:54:57.953Z,41.1
2018-04-16T03:55:47.965Z,41.1
2018-04-16T03:56:38.335Z,41
2018-04-16T03:57:28.670Z,41
2018-04-16T03:58:18.461Z,41
2018-04-16T03:59:08.793Z,41
2018-04-16T03:59:58.861Z,41
2018-04-16T04:00:48.358Z,41
2018-04-16T04:01:38.237Z,41
2018-04-16T04:02:28.824Z,41
2018-04-16T04:03:18.556Z,41
2018-04-16T04:04:09.182Z,41
2018-04-16T04:04:58.384Z,41
2018-04-16T04:05:49.004Z,41
2018-04-16T04:06:38.803Z,40.9
2018-04-16T04:07:28.846Z,41
2018-04-16T04:08:19.206Z,41
2018-04-16T04:09:09.451Z,40.9
2018-04-16T04:09:59.329Z,40.9
2018-04-16T04:10:48.829Z,40.9
2018-04-16T04:11:39.741Z,40.9
2018-04-16T04:12:29.552Z,40.9
2018-04-16T04:13:19.293Z,40.9
2018-04-16T04:14:09.989Z,40.9
2018-04-16T04:15:00.011Z,40.9
2018-04-16T04:15:50.066Z,40.9
2018-04-16T04:16:40.121Z,40.9
2018-04-16T04:17:30.207Z,40.9
2018-04-16T04:18:19.712Z,40.9
2018-04-16T04:19:10.293Z,40.9
2018-04-16T04:20:00.385Z,40.9
2018-04-16T04:20:50.438Z,40.9
2018-04-16T04:21:39.636Z,40.9
2018-04-16T04:22:30.559Z,40.9
2018-04-16T04:23:20.073Z,40.9
2018-04-16T04:24:10.692Z,40.9
2018-04-16T04:25:01.211Z,40.9
2018-04-16T04:25:50.230Z,40.9
2018-04-16T04:26:40.605Z,40.9
2018-04-16T04:27:29.798Z,40.9
2018-04-16T04:28:20.706Z,40.8
2018-04-16T04:29:11.046Z,40.8
2018-04-16T04:30:01.126Z,40.8
2018-04-16T04:30:51.185Z,40.8
2018-04-16T04:31:40.951Z,40.8
2018-04-16T04:32:31.008Z,40.8
2018-04-16T04:33:21.142Z,40.8
2018-04-16T04:34:11.153Z,40.8
2018-04-16T04:35:01.204Z,40.8
2018-04-16T04:35:51.583Z,40.8
2018-04-16T04:36:41.675Z,40.8
2018-04-16T04:37:31.776Z,40.8
2018-04-16T04:38:21.503Z,40.8
2018-04-16T04:39:11.909Z,40.8
2018-04-16T04:40:01.587Z,40.8
2018-04-16T04:40:51.966Z,40.8
2018-04-16T04:41:41.155Z,40.8
2018-04-16T04:42:32.051Z,40.8
2018-04-16T04:43:21.872Z,40.8
2018-04-16T04:44:11.963Z,40.8
2018-04-16T04:45:02.263Z,40.8
2018-04-16T04:45:52.338Z,40.8
2018-04-16T04:46:41.878Z,40.8
2018-04-16T04:47:32.199Z,40.8
2018-04-16T04:48:22.485Z,40.8
2018-04-16T04:49:12.570Z,40.8
2018-04-16T04:50:02.616Z,40.7
2018-04-16T04:50:52.448Z,40.8
2018-04-16T04:51:42.475Z,40.7
2018-04-16T04:52:32.540Z,40.7
2018-04-16T04:53:22.899Z,40.8
2018-04-16T04:54:12.939Z,40.7
2018-04-16T04:55:02.725Z,40.7
2018-04-16T04:55:52.229Z,40.7
2018-04-16T04:56:42.875Z,40.7
2018-04-16T04:57:32.451Z,40.7
2018-04-16T04:58:23.302Z,40.7
2018-04-16T04:59:12.774Z,40.7
2018-04-16T05:00:03.424Z,40.7
2018-04-16T05:00:53.164Z,40.7
2018-04-16T05:01:42.936Z,40.7
2018-04-16T05:02:33.026Z,40.6
2018-04-16T05:03:23.367Z,40.7
2018-04-16T05:04:13.718Z,40.6
2018-04-16T05:05:03.751Z,40.6
2018-04-16T05:05:53.249Z,40.6
2018-04-16T05:06:43.931Z,40.6
2018-04-16T05:07:33.949Z,40.6
2018-04-16T05:08:23.746Z,40.6
2018-04-16T05:09:14.084Z,40.6
2018-04-16T05:10:03.883Z,40.6
2018-04-16T05:10:53.969Z,40.6
2018-04-16T05:11:43.725Z,40.6
2018-04-16T05:12:34.362Z,40.6
2018-04-16T05:13:24.148Z,40.6
2018-04-16T05:14:13.339Z,40.6
2018-04-16T05:15:04.537Z,40.6
2018-04-16T05:15:54.588Z,40.6
2018-04-16T05:16:44.070Z,40.6
2018-04-16T05:17:34.703Z,40.6
2018-04-16T05:18:24.755Z,40.6
2018-04-16T05:19:14.567Z,40.6
2018-04-16T05:20:04.628Z,40.6
2018-04-16T05:20:54.997Z,40.6
2018-04-16T05:21:44.710Z,40.6
2018-04-16T05:22:34.539Z,40.6
2018-04-16T05:23:24.920Z,40.6
2018-04-16T05:24:14.652Z,40.5
2018-04-16T05:25:05.286Z,40.5
2018-04-16T05:25:55.362Z,40.5
2018-04-16T05:26:45.405Z,40.5
2018-04-16T05:27:35.491Z,40.5
2018-04-16T05:28:25.015Z,40.5
2018-04-16T05:29:15.587Z,40.5
2018-04-16T05:30:05.663Z,40.5
2018-04-16T05:30:55.434Z,40.5
2018-04-16T05:31:45.805Z,40.5
2018-04-16T05:32:35.761Z,40.5
2018-04-16T05:33:25.911Z,40.5
2018-04-16T05:34:15.680Z,40.5
2018-04-16T05:35:06.057Z,40.4
2018-04-16T05:35:55.542Z,40.4
2018-04-16T05:36:45.630Z,40.4
2018-04-16T05:37:35.928Z,40.4
2018-04-16T05:38:25.442Z,40.4
2018-04-16T05:39:16.085Z,40.4
2018-04-16T05:40:06.391Z,40.4
2018-04-16T05:40:55.891Z,40.4
2018-04-16T05:41:46.533Z,40.4
2018-04-16T05:42:36.804Z,40.4
2018-04-16T05:43:26.667Z,40.4
2018-04-16T05:44:16.138Z,40.4
2018-04-16T05:45:06.206Z,40.4
2018-04-16T05:45:56.568Z,40.4
2018-04-16T05:46:46.951Z,40.4
2018-04-16T05:47:36.719Z,40.4
2018-04-16T05:48:26.464Z,40.4
2018-04-16T05:49:16.732Z,40.4
2018-04-16T05:50:06.904Z,40.4
2018-04-16T05:50:57.226Z,40.4
2018-04-16T05:51:47.301Z,40.4
2018-04-16T05:52:37.363Z,40.4
2018-04-16T05:53:26.854Z,40.4
2018-04-16T05:54:16.948Z,40.4
2018-04-16T05:55:07.296Z,40.4
2018-04-16T05:55:57.318Z,40.4
2018-04-16T05:56:46.833Z,40.4
2018-04-16T05:57:37.146Z,40.4
2018-04-16T05:58:27.796Z,40.4
2018-04-16T05:59:17.578Z,40.3
2018-04-16T06:00:07.651Z,40.3
2018-04-16T06:00:57.988Z,40.3
2018-04-16T06:01:47.288Z,40.3
2018-04-16T06:02:37.558Z,40.3
2018-04-16T06:03:27.878Z,40.3
2018-04-16T06:04:17.381Z,40.3
2018-04-16T06:05:07.213Z,40.3
2018-04-16T06:05:58.122Z,40.3
2018-04-16T06:06:48.427Z,40.3
2018-04-16T06:07:37.620Z,40.3
2018-04-16T06:08:27.983Z,40.3
2018-04-16T06:09:18.054Z,40.3
2018-04-16T06:10:08.428Z,40.3
2018-04-16T06:10:58.764Z,40.3
2018-04-16T06:11:47.960Z,40.3
2018-04-16T06:12:38.115Z,40.3
2018-04-16T06:13:28.633Z,40.3
2018-04-16T06:14:18.700Z,40.3
2018-04-16T06:15:08.188Z,40.3
2018-04-16T06:15:59.122Z,40.3
2018-04-16T06:16:48.449Z,40.3
2018-04-16T06:17:39.282Z,40.3
2018-04-16T06:18:28.445Z,40.3
2018-04-16T06:19:18.822Z,40.3
2018-04-16T06:20:09.164Z,40.3
2018-04-16T06:20:59.202Z,40.3
2018-04-16T06:21:49.002Z,40.3
2018-04-16T06:22:39.323Z,40.2
2018-04-16T06:23:29.107Z,40.2
2018-04-16T06:24:18.884Z,40.2
2018-04-16T06:25:09.829Z,40.2
2018-04-16T06:25:59.291Z,40.2
2018-04-16T06:26:49.674Z,40.2
2018-04-16T06:27:38.841Z,40.2
2018-04-16T06:28:29.767Z,40.2
2018-04-16T06:29:19.549Z,40.2
2018-04-16T06:30:09.421Z,40.1
2018-04-16T06:31:00.221Z,40.2
2018-04-16T06:31:49.824Z,40.2
2018-04-16T06:32:40.069Z,40.2
2018-04-16T06:33:30.416Z,40.1
2018-04-16T06:34:20.529Z,40.1
2018-04-16T06:35:10.542Z,40.1
2018-04-16T06:36:00.305Z,40.1
2018-04-16T06:36:51.010Z,40.1
2018-04-16T06:37:40.431Z,40.1
2018-04-16T06:38:30.773Z,40.1
2018-04-16T06:39:20.019Z,40.1
2018-04-16T06:40:10.923Z,40.1
2018-04-16T06:41:00.974Z,40.1
2018-04-16T06:41:50.783Z,40.1
2018-04-16T06:42:41.101Z,40.1
2018-04-16T06:43:30.317Z,40.1
2018-04-16T06:44:20.972Z,40.1
2018-04-16T06:45:11.289Z,40.1
2018-04-16T06:46:01.414Z,40.1
2018-04-16T06:46:50.667Z,40.1
2018-04-16T06:47:40.727Z,40.1
2018-04-16T06:48:31.568Z,40.1
2018-04-16T06:49:21.053Z,40.1
2018-04-16T06:50:11.392Z,40.1
2018-04-16T06:51:01.731Z,40.1
2018-04-16T06:51:50.956Z,40.1
2018-04-16T06:52:41.407Z,40.1
2018-04-16T06:53:31.921Z,40
2018-04-16T06:54:21.720Z,40.1
2018-04-16T06:55:11.755Z,40.1
2018-04-16T06:56:01.864Z,40.1
2018-04-16T06:56:52.171Z,40
2018-04-16T06:57:41.680Z,40
2018-04-16T06:58:31.483Z,40
2018-04-16T06:59:22.440Z,40
2018-04-16T07:00:12.532Z,40
2018-04-16T07:01:02.661Z,40
2018-04-16T07:01:52.014Z,40
2018-04-16T07:02:42.111Z,40
2018-04-16T07:03:32.726Z,40
2018-04-16T07:04:21.449Z,40
2018-04-16T07:05:12.372Z,40
2018-04-16T07:06:02.141Z,40
2018-04-16T07:06:52.385Z,40
2018-04-16T07:07:42.801Z,40
2018-04-16T07:08:32.878Z,39.9
2018-04-16T07:09:22.293Z,39.9
2018-04-16T07:10:13.389Z,39.9
2018-04-16T07:11:02.785Z,39.9
2018-04-16T07:11:53.327Z,39.9
2018-04-16T07:12:42.811Z,39.9
2018-04-16T07:13:32.569Z,39.9
2018-04-16T07:14:23.519Z,39.9
2018-04-16T07:15:13.014Z,39.9
2018-04-16T07:16:04.071Z,39.9
2018-04-16T07:16:53.118Z,39.9
2018-04-16T07:17:43.262Z,39.9
2018-04-16T07:18:33.258Z,39.9
2018-04-16T07:19:23.057Z,39.9
2018-04-16T07:20:13.108Z,39.9
2018-04-16T07:21:04.013Z,39.9
2018-04-16T07:21:53.518Z,39.9
2018-04-16T07:22:44.140Z,39.9
2018-04-16T07:23:33.957Z,39.9
2018-04-16T07:24:24.102Z,39.9
2018-04-16T07:25:13.741Z,39.9
2018-04-16T07:26:04.377Z,39.9
2018-04-16T07:26:54.185Z,39.9
2018-04-16T07:27:44.051Z,39.9
2018-04-16T07:28:34.001Z,39.9
2018-04-16T07:29:23.599Z,39.9
2018-04-16T07:30:14.122Z,39.9
2018-04-16T07:31:04.214Z,39.9
2018-04-16T07:31:54.252Z,39.9
2018-04-16T07:32:44.614Z,39.8
2018-04-16T07:33:34.668Z,39.8
2018-04-16T07:34:24.734Z,39.8
2018-04-16T07:35:15.055Z,39.8
2018-04-16T07:36:04.358Z,39.8
2018-04-16T07:36:54.343Z,39.8
2018-04-16T07:37:45.275Z,39.8
2018-04-16T07:38:35.289Z,39.8
2018-04-16T07:39:24.793Z,39.8
2018-04-16T07:40:15.498Z,39.8
2018-04-16T07:41:04.931Z,39.8
2018-04-16T07:41:55.013Z,39.8
2018-04-16T07:42:45.379Z,39.8
2018-04-16T07:43:35.114Z,39.8
2018-04-16T07:44:24.917Z,39.8
2018-04-16T07:45:15.549Z,39.8
2018-04-16T07:46:05.568Z,39.8
2018-04-16T07:46:55.403Z,39.8
2018-04-16T07:47:44.874Z,39.8
2018-04-16T07:48:36.074Z,39.8
2018-04-16T07:49:25.672Z,39.8
2018-04-16T07:50:15.634Z,39.8
2018-04-16T07:51:06.265Z,39.8
2018-04-16T07:51:56.087Z,39.8
2018-04-16T07:52:46.091Z,39.8
2018-04-16T07:53:35.435Z,39.8
2018-04-16T07:54:25.713Z,39.7
2018-04-16T07:55:16.559Z,39.7
2018-04-16T07:56:06.630Z,39.7
2018-04-16T07:56:56.142Z,39.7
2018-04-16T07:57:46.781Z,39.7
2018-04-16T07:58:36.837Z,39.7
2018-04-16T07:59:26.381Z,39.7
2018-04-16T08:00:16.691Z,39.7
2018-04-16T08:01:06.256Z,39.7
2018-04-16T08:01:56.011Z,39.7
2018-04-16T08:02:45.843Z,39.7
2018-04-16T08:03:36.749Z,39.7
2018-04-16T08:04:26.963Z,39.7
2018-04-16T08:05:17.052Z,39.6
2018-04-16T08:06:07.391Z,39.7
2018-04-16T08:06:56.883Z,39.6
2018-04-16T08:07:47.245Z,39.6
2018-04-16T08:08:37.603Z,39.6
2018-04-16T08:09:27.345Z,39.7
2018-04-16T08:10:17.413Z,39.6
2018-04-16T08:11:07.505Z,39.6
2018-04-16T08:11:57.848Z,39.6
2018-04-16T08:12:47.334Z,39.6
2018-04-16T08:13:37.411Z,39.6
2018-04-16T08:14:27.468Z,39.6
2018-04-16T08:15:17.516Z,39.6
2018-04-16T08:16:08.184Z,39.6
2018-04-16T08:16:57.933Z,39.6
2018-04-16T08:17:47.448Z,39.6
2018-04-16T08:18:37.766Z,39.6
2018-04-16T08:19:28.442Z,39.6
2018-04-16T08:20:17.881Z,39.6
2018-04-16T08:21:08.501Z,39.6
2018-04-16T08:21:58.566Z,39.6
2018-04-16T08:22:48.635Z,39.6
2018-04-16T08:23:38.696Z,39.6
2018-04-16T08:24:28.220Z,39.6
2018-04-16T08:25:18.851Z,39.6
2018-04-16T08:26:08.886Z,39.6
2018-04-16T08:26:59.013Z,39.6
2018-04-16T08:27:49.014Z,39.6
2018-04-16T08:28:38.805Z,39.6
2018-04-16T08:29:28.588Z,39.5
2018-04-16T08:30:18.918Z,39.6
2018-04-16T08:31:09.257Z,39.5
2018-04-16T08:31:59.352Z,39.5
2018-04-16T08:32:49.387Z,39.5
2018-04-16T08:33:39.465Z,39.5
2018-04-16T08:34:28.705Z,39.5
2018-04-16T08:35:19.308Z,39.5
2018-04-16T08:36:09.234Z,39.5
2018-04-16T08:36:59.450Z,39.5
2018-04-16T08:37:49.747Z,39.5
2018-04-16T08:38:39.012Z,39.4
2018-04-16T08:39:29.895Z,39.5
2018-04-16T08:40:19.695Z,39.4
2018-04-16T08:41:10.030Z,39.5
2018-04-16T08:41:59.797Z,39.4
2018-04-16T08:42:49.851Z,39.4
2018-04-16T08:43:40.204Z,39.5
2018-04-16T08:44:29.993Z,39.4
2018-04-16T08:45:19.779Z,39.4
2018-04-16T08:46:09.829Z,39.4
2018-04-16T08:47:00.166Z,39.4
2018-04-16T08:47:49.979Z,39.4
2018-04-16T08:48:40.019Z,39.4
2018-04-16T08:49:30.089Z,39.4
2018-04-16T08:50:20.716Z,39.4
2018-04-16T08:51:10.204Z,39.4
2018-04-16T08:52:00.863Z,39.4
2018-04-16T08:52:50.893Z,39.4
2018-04-16T08:53:40.386Z,39.4
2018-04-16T08:54:30.466Z,39.4
2018-04-16T08:55:21.074Z,39.4
2018-04-16T08:56:11.148Z,39.4
2018-04-16T08:57:00.914Z,39.4
2018-04-16T08:57:51.003Z,39.4
2018-04-16T08:58:41.318Z,39.4
2018-04-16T08:59:31.411Z,39.4
2018-04-16T09:00:21.462Z,39.4
2018-04-16T09:01:11.531Z,39.4
2018-04-16T09:02:01.592Z,39.4
2018-04-16T09:02:51.658Z,39.4
2018-04-16T09:03:41.734Z,39.4
2018-04-16T09:04:31.775Z,39.4
2018-04-16T09:05:21.568Z,39.3
2018-04-16T09:06:11.934Z,39.4
2018-04-16T09:07:01.390Z,39.3
2018-04-16T09:07:51.748Z,39.4
2018-04-16T09:08:41.907Z,39.3
2018-04-16T09:09:32.182Z,39.3
2018-04-16T09:10:22.215Z,39.3
2018-04-16T09:11:12.290Z,39.3
2018-04-16T09:12:01.761Z,39.3
2018-04-16T09:12:51.869Z,39.3
2018-04-16T09:13:42.450Z,39.3
2018-04-16T09:14:31.732Z,39.3
2018-04-16T09:15:22.328Z,39.3
2018-04-16T09:16:12.118Z,39.3
2018-04-16T09:17:02.740Z,39.3
2018-04-16T09:17:52.784Z,39.3
2018-04-16T09:18:42.852Z,39.3
2018-04-16T09:19:32.919Z,39.3
2018-04-16T09:20:23.020Z,39.3
2018-04-16T09:21:12.790Z,39.3
2018-04-16T09:22:02.555Z,39.3
2018-04-16T09:22:52.622Z,39.3
2018-04-16T09:23:42.687Z,39.3
2018-04-16T09:24:32.734Z,39.3
2018-04-16T09:25:23.422Z,39.3
2018-04-16T09:26:13.151Z,39.3
2018-04-16T09:27:02.632Z,39.2
2018-04-16T09:27:52.790Z,39.3
2018-04-16T09:28:43.651Z,39.3
2018-04-16T09:29:33.416Z,39.3
2018-04-16T09:30:23.182Z,39.2
2018-04-16T09:31:13.520Z,39.2
2018-04-16T09:32:03.566Z,39.2
2018-04-16T09:32:53.358Z,39.2
2018-04-16T09:33:43.990Z,39.2
2018-04-16T09:34:33.485Z,39.2
2018-04-16T09:35:22.978Z,39.2
2018-04-16T09:36:14.186Z,39.2
2018-04-16T09:37:03.399Z,39.2
2018-04-16T09:37:54.153Z,39.2
2018-04-16T09:38:44.382Z,39.2
2018-04-16T09:39:33.202Z,39.2
2018-04-16T09:40:24.210Z,39.2
2018-04-16T09:41:14.527Z,39.1
2018-04-16T09:42:04.347Z,39.1
2018-04-16T09:42:54.390Z,39.2
2018-04-16T09:43:44.167Z,39.1
2018-04-16T09:44:33.972Z,39.1
2018-04-16T09:45:24.304Z,39.1
2018-04-16T09:46:14.712Z,39.1
2018-04-16T09:47:05.001Z,39.1
2018-04-16T09:47:55.064Z,39.1
2018-04-16T09:48:44.337Z,39.1
2018-04-16T09:49:34.901Z,39.1
2018-04-16T09:50:24.858Z,39.1
2018-04-16T09:51:15.057Z,39.1
2018-04-16T09:52:05.097Z,39.1
2018-04-16T09:52:55.170Z,39.1
2018-04-16T09:53:45.547Z,39.1
2018-04-16T09:54:34.999Z,39.1
2018-04-16T09:55:25.066Z,39.1
2018-04-16T09:56:15.419Z,39.1
2018-04-16T09:57:05.489Z,39.1
2018-04-16T09:57:55.257Z,39.1
2018-04-16T09:58:45.306Z,39.1
2018-04-16T09:59:35.351Z,39.1
2018-04-16T10:00:25.499Z,39.1
2018-04-16T10:01:15.487Z,39.1
2018-04-16T10:02:05.864Z,39.1
2018-04-16T10:02:56.236Z,39.1
2018-04-16T10:03:46.255Z,39.1
2018-04-16T10:04:36.286Z,39.1
2018-04-16T10:05:25.535Z,39.1
2018-04-16T10:06:15.877Z,39
2018-04-16T10:07:05.643Z,39
2018-04-16T10:07:56.314Z,39
2018-04-16T10:08:46.609Z,39
2018-04-16T10:09:36.680Z,39
2018-04-16T10:10:26.738Z,39
2018-04-16T10:11:16.811Z,39
2018-04-16T10:12:06.878Z,39
2018-04-16T10:12:56.644Z,39
2018-04-16T10:13:47.027Z,39
2018-04-16T10:14:37.070Z,39
2018-04-16T10:15:25.718Z,39
2018-04-16T10:16:17.168Z,39
2018-04-16T10:17:07.240Z,38.9
2018-04-16T10:17:56.775Z,39
2018-04-16T10:18:46.538Z,38.9
2018-04-16T10:19:37.485Z,38.9
2018-04-16T10:20:27.245Z,38.9
2018-04-16T10:21:17.283Z,39
2018-04-16T10:22:07.365Z,38.9
2018-04-16T10:22:57.421Z,38.9
2018-04-16T10:23:46.643Z,38.9
2018-04-16T10:24:37.843Z,38.9
2018-04-16T10:25:27.574Z,38.9
2018-04-16T10:26:17.095Z,38.9
2018-04-16T10:27:07.725Z,38.9
2018-04-16T10:27:57.814Z,38.9
2018-04-16T10:28:47.570Z,38.9
2018-04-16T10:29:37.629Z,38.9
2018-04-16T10:30:27.975Z,38.9
2018-04-16T10:31:17.480Z,38.9
2018-04-16T10:32:07.787Z,38.9
2018-04-16T10:32:57.947Z,38.9
2018-04-16T10:33:47.954Z,38.9
2018-04-16T10:34:38.000Z,38.9
2018-04-16T10:35:28.636Z,38.9
2018-04-16T10:36:18.391Z,38.9
2018-04-16T10:37:08.766Z,38.9
2018-04-16T10:37:58.246Z,38.9
2018-04-16T10:38:48.354Z,38.9
2018-04-16T10:39:38.971Z,38.9
2018-04-16T10:40:29.064Z,38.9
2018-04-16T10:41:19.084Z,38.9
2018-04-16T10:42:08.859Z,38.8
2018-04-16T10:42:58.352Z,38.8
2018-04-16T10:43:48.969Z,38.8
2018-04-16T10:44:38.762Z,38.8
2018-04-16T10:45:28.799Z,38.8
2018-04-16T10:46:19.431Z,38.8
2018-04-16T10:47:09.701Z,38.8
2018-04-16T10:47:59.480Z,38.8
2018-04-16T10:48:50.133Z,38.8
2018-04-16T10:49:40.028Z,38.8
2018-04-16T10:50:30.018Z,38.8
2018-04-16T10:51:20.325Z,38.8
2018-04-16T10:52:10.065Z,38.8
2018-04-16T10:53:00.152Z,38.8
2018-04-16T10:53:50.523Z,38.8
2018-04-16T10:54:40.277Z,38.8
2018-04-16T10:55:30.640Z,38.8
2018-04-16T10:56:20.418Z,38.8
2018-04-16T10:57:10.233Z,38.8
2018-04-16T10:58:00.788Z,38.8
2018-04-16T10:58:50.027Z,38.8
2018-04-16T10:59:40.613Z,38.8
2018-04-16T11:00:31.040Z,38.8
2018-04-16T11:01:21.078Z,38.8
2018-04-16T11:02:10.562Z,38.8
2018-04-16T11:03:00.337Z,38.8
2018-04-16T11:03:50.985Z,38.8
2018-04-16T11:04:41.040Z,38.8
2018-04-16T11:05:30.524Z,38.8
2018-04-16T11:06:21.580Z,38.8
2018-04-16T11:07:11.200Z,38.7
2018-04-16T11:08:00.701Z,38.8
2018-04-16T11:08:51.062Z,38.7
2018-04-16T11:09:41.418Z,38.7